EDT,Max TemperatureF,Mean TemperatureF,Min TemperatureF,Max Dew PointF,MeanDew PointF,Min DewpointF,Max Humidity, Mean Humidity, Min Humidity, Max Sea Level PressureIn, Mean Sea Level PressureIn, Min Sea Level PressureIn, Max VisibilityMiles, Mean VisibilityMiles, Min VisibilityMiles, Max Wind SpeedMPH, Mean Wind SpeedMPH, Max Gust SpeedMPH,PrecipitationIn, CloudCover, Events, WindDirDegrees
2012-10-1,90,81,71,74,71,70,100,76,52,29.80,29.76,29.69,10,6,0,15,7,22,0.00,4,Fog,153
2012-10-2,87,80,72,74,71,65,94,75,55,30.00,29.82,29.73,10,9,2,12,6,16,0.08,5,Rain,205
2012-10-3,81,75,68,70,66,62,97,78,58,30.19,30.10,30.00,10,9,4,9,1,12,0.13,3,Rain,214
2012-10-4,79,74,68,72,69,66,93,85,76,30.25,30.19,30.17,10,7,2,9,2,13,0.05,5,Rain,1
2012-10-5,86,78,69,72,70,68,100,81,61,30.18,30.12,30.02,10,6,2,9,2,12,0.00,3,,5
2012-10-6,88,78,68,73,69,66,100,79,57,30.03,29.99,29.89,10,5,0,9,2,13,0.00,5,Fog,37
2012-10-7,89,78,67,70,67,63,100,72,43,30.02,29.97,29.94,10,4,0,10,3,16,0.00,3,Fog,324
2012-10-8,71,66,61,65,62,57,90,83,76,30.10,30.03,29.98,10,8,4,10,4,14,T,7,,356
2012-10-9,73,65,57,61,57,54,93,77,61,30.15,30.10,30.07,10,7,2,8,3,12,0.00,7,,42
2012-10-10,80,69,57,61,58,56,97,71,45,30.17,30.12,30.06,10,4,0,16,4,20,0.00,3,Fog,267
2012-10-11,81,67,53,74,56,52,100,70,39,30.26,30.18,30.14,10,5,0,10,2,15,0.00,0,Fog,5
2012-10-12,86,71,55,69,64,60,93,69,44,30.25,30.19,30.14,10,4,1,12,2,15,0.00,0,,332
2012-10-13,83,72,61,63,61,59,93,70,47,30.30,30.24,30.19,10,9,5,14,6,21,0.00,1,,75
2012-10-14,75,69,62,70,65,59,97,85,73,30.21,30.13,30.04,10,7,0,9,1,12,0.04,7,Fog-Rain,197
2012-10-15,85,74,63,70,65,57,100,76,51,30.04,29.95,29.81,10,5,0,14,4,18,0.00,4,Fog-Thunderstorm,254
2012-10-16,77,64,51,55,50,45,93,63,33,29.96,29.91,29.88,10,10,10,12,3,20,0.00,0,,19
2012-10-17,78,66,54,58,55,51,93,68,42,29.99,29.91,29.86,10,8,4,9,1,14,0.00,0,,110
2012-10-18,83,70,57,66,60,55,100,76,51,29.88,29.85,29.79,10,4,0,12,2,18,T,4,Fog-Rain,198
2012-10-19,80,65,50,67,55,38,93,58,23,29.90,29.84,29.80,10,8,2,12,4,16,0.07,3,Rain,291
2012-10-20,77,62,46,50,46,42,93,62,31,29.97,29.91,29.86,10,10,10,14,3,23,0.00,0,,296
2012-10-21,79,63,47,52,48,45,93,63,32,30.14,30.07,29.97,10,10,10,9,2,14,0.00,0,,15
2012-10-22,81,65,48,53,48,43,100,64,28,30.21,30.15,30.11,10,6,0,14,3,17,0.00,0,Fog,80
2012-10-23,82,65,48,61,55,47,96,68,40,30.17,30.12,30.08,10,9,7,10,3,15,0.00,0,,88
2012-10-24,85,73,60,65,60,57,97,70,43,30.15,30.09,30.03,10,6,0,12,4,17,0.00,1,Fog,87
2012-10-25,86,76,66,67,64,61,93,70,47,30.05,30.02,29.96,10,7,1,15,6,22,T,4,,70
2012-10-26,83,74,64,66,61,54,93,70,47,29.96,29.89,29.80,10,9,7,15,6,25,0.00,0,,14
2012-10-27,77,70,63,61,58,56,84,67,50,29.78,29.71,29.64,10,9,7,18,10,25,0.00,2,,338
2012-10-28,75,65,54,56,50,40,83,63,43,29.79,29.72,29.66,10,10,10,22,13,32,0.00,2,,306
2012-10-29,66,56,46,40,33,26,71,48,24,29.83,29.76,29.68,10,10,10,24,13,36,0.00,0,,300
2012-10-30,64,54,44,28,25,19,53,36,19,29.88,29.77,29.72,10,10,10,25,11,33,0.00,0,,270
2012-10-31,72,56,40,43,35,29,76,51,26,29.96,29.90,29.85,10,10,5,24,8,32,0.00,0,,259